Huvudsida
METAR-TAF:

METAR-TAF

Flygplatser :

Vamdrup

Kolding, Danmark

latitud: 55-26N, longitud: 009-20E, höjd: 44 m

Aktuellt väderrapport

Denna rapport gjordes för 50 minuter sedan, klockan 08:50 UTC
Vind 9 kt från ost/nordost, varierande mellan nordost och ost
Temperatur 18°C
Fuktighet 64%
Tryck 1018 hPa
Sikt 10 km eller mer
Inga moln under 1 500 m eller inga cumulonimbus

METAR: EKVD 220850Z 07009KT 040V100 CAVOK 18/11 Q1018

Tid: 11:40 (09:40 UTC)

Väderprognos

Denna rapport gjordes för 45 minuter sedan, klockan 08:55 UTC
Prognos gäller från 22 kl. 09 UTC till 22 kl. 16 UTC
Vind 8 kt från ost
Sikt 10 km eller mer
Inga moln under 1 500 m eller inga cumulonimbus

TAF: EKVD 220855Z 2209/2216 08008KT CAVOK

Aktuella väderrapporter och prognoser från 4000 flygplatser (METAR- och TAF-rapporter).

De tillgängliga stationerna syns som gula och röda prickar på kartan.

För musen över prickarna för att se namnen på stationerna.

Klicka sedan för att få väderrapporter och prognoser.

För att ändra kartan: Klicka på de gröna knapparna med ett svart kors på för att zooma in; den gröna knappen med ett streck på för att zooma ut; eller på de gröna pilarna för angränsande kartor.


METAR-TAF: